Time;durP1;ratioP1;P1;durP2;ratioP2;P2;SDS_P1;SDS_P2;PMS_P1;PMS_P2;Temp;Humidity;BMP_temperature;BMP_pressure;BME280_temperature;BME280_humidity;BME280_pressure;Samples;Min_cycle;Max_cycle;Signal;HPM_P1;HPM_P2
2023/06/19 00:01:31;;;;;;;;;;;22.30;72.70;;;;;;5061364;28;19979;-41
2023/06/19 00:03:57;;;;;;;;;;;22.30;72.30;;;;;;5071867;28;19924;-41
2023/06/19 00:06:24;;;;;;;;;;;22.20;72.20;;;;;;5046444;28;19988;-41
2023/06/19 00:08:51;;;;;;;;;;;22.20;72.30;;;;;;5064507;28;19970;-40
2023/06/19 00:11:19;;;;;;;;;;;22.20;72.40;;;;;;5071976;28;19924;-40
2023/06/19 00:13:45;;;;;;;;;;;22.20;72.50;;;;;;5071032;28;19928;-41
2023/06/19 00:16:12;;;;;;;;;;;22.20;72.10;;;;;;5077819;28;19931;-40
2023/06/19 00:18:39;;;;;;;;;;;22.20;72.30;;;;;;5070119;28;20004;-38
2023/06/19 00:21:07;;;;;;;;;;;22.20;72.70;;;;;;5049985;28;19970;-40
2023/06/19 00:23:33;;;;;;;;;;;22.20;72.50;;;;;;5053388;28;19931;-37
2023/06/19 00:26:01;;;;;;;;;;;22.20;72.10;;;;;;5053271;28;20288;-42
2023/06/19 00:28:29;;;;;;;;;;;22.20;72.20;;;;;;5070207;28;19955;-40
2023/06/19 00:30:55;;;;;;;;;;;22.20;72.50;;;;;;5077574;28;20073;-42
2023/06/19 00:33:22;;;;;;;;;;;22.20;72.30;;;;;;5059471;28;19924;-42
2023/06/19 00:35:50;;;;;;;;;;;22.20;72.40;;;;;;5070619;28;19931;-39
2023/06/19 00:38:17;;;;;;;;;;;22.10;72.50;;;;;;5072175;28;20422;-41
2023/06/19 00:40:43;;;;;;;;;;;22.10;72.30;;;;;;5061623;28;19960;-41
2023/06/19 00:43:10;;;;;;;;;;;22.10;72.20;;;;;;5060763;28;20011;-39
2023/06/19 00:45:38;;;;;;;;;;;22.10;72.80;;;;;;5082624;28;19932;-41
2023/06/19 00:48:05;;;;;;;;;;;22.10;72.40;;;;;;5070525;28;19964;-41
2023/06/19 00:50:31;;;;;;;;;;;22.10;72.70;;;;;;5071624;28;20461;-41
2023/06/19 00:52:58;;;;;;;;;;;22.10;72.30;;;;;;5036589;28;20397;-41
2023/06/19 00:55:25;;;;;;;;;;;22.10;72.30;;;;;;5064308;28;19985;-41
2023/06/19 00:57:52;;;;;;;;;;;22.10;71.80;;;;;;5070605;28;20281;-40
2023/06/19 01:00:19;;;;;;;;;;;22.10;72.10;;;;;;5070748;28;19974;-41
2023/06/19 01:02:47;;;;;;;;;;;22.10;71.90;;;;;;5073787;28;19964;-41
2023/06/19 01:05:13;;;;;;;;;;;22.20;71.80;;;;;;5054612;28;19978;-41
2023/06/19 01:07:42;;;;;;;;;;;22.10;71.80;;;;;;5063683;28;19929;-41
2023/06/19 01:10:09;;;;;;;;;;;22.20;71.70;;;;;;5047598;28;20457;-40
2023/06/19 01:12:37;;;;;;;;;;;22.20;71.40;;;;;;5041372;28;20442;-41
2023/06/19 01:15:05;;;;;;;;;;;22.20;71.50;;;;;;5057461;28;19959;-40
2023/06/19 01:17:31;;;;;;;;;;;22.20;71.50;;;;;;5037084;28;20022;-41
2023/06/19 01:19:59;;;;;;;;;;;22.20;71.10;;;;;;5069225;28;20431;-41
2023/06/19 01:22:28;;;;;;;;;;;22.20;71.10;;;;;;5063764;28;19925;-39
2023/06/19 01:24:54;;;;;;;;;;;22.20;71.20;;;;;;5072507;28;19925;-40
2023/06/19 01:27:21;;;;;;;;;;;22.30;70.90;;;;;;5065345;28;20375;-41
2023/06/19 01:29:48;;;;;;;;;;;22.30;70.90;;;;;;5057251;28;20287;-41
2023/06/19 01:32:16;;;;;;;;;;;22.30;71.00;;;;;;5055702;28;19963;-39
2023/06/19 01:34:42;;;;;;;;;;;22.30;70.90;;;;;;5071827;28;19971;-42
2023/06/19 01:37:09;;;;;;;;;;;22.40;70.80;;;;;;5050487;28;20015;-40
2023/06/19 01:39:37;;;;;;;;;;;22.40;70.80;;;;;;5054805;28;19925;-42
2023/06/19 01:42:04;;;;;;;;;;;22.40;70.70;;;;;;5074580;28;19977;-41
2023/06/19 01:44:31;;;;;;;;;;;22.40;70.80;;;;;;5040110;28;19929;-40
2023/06/19 01:46:57;;;;;;;;;;;22.40;70.90;;;;;;5065982;28;20331;-41
2023/06/19 01:49:24;;;;;;;;;;;22.40;70.70;;;;;;5073474;28;19924;-41
2023/06/19 01:51:51;;;;;;;;;;;22.40;70.80;;;;;;5055245;28;19967;-38
2023/06/19 01:54:17;;;;;;;;;;;22.50;70.60;;;;;;5074149;28;19978;-41
2023/06/19 01:56:45;;;;;;;;;;;22.40;70.80;;;;;;5065360;28;20046;-41
2023/06/19 01:59:12;;;;;;;;;;;22.40;70.70;;;;;;5087525;28;19985;-40
2023/06/19 02:01:38;;;;;;;;;;;22.50;71.30;;;;;;5080060;28;19932;-40
2023/06/19 02:04:05;;;;;;;;;;;22.50;71.40;;;;;;5055591;28;20007;-41
2023/06/19 02:06:32;;;;;;;;;;;22.50;71.20;;;;;;5056040;28;19925;-41
2023/06/19 02:08:58;;;;;;;;;;;22.40;71.30;;;;;;5072739;28;20325;-41
2023/06/19 02:11:25;;;;;;;;;;;22.40;71.60;;;;;;5078100;28;19925;-42
2023/06/19 02:13:53;;;;;;;;;;;22.40;71.80;;;;;;5058034;28;19961;-41
2023/06/19 02:16:20;;;;;;;;;;;22.40;71.30;;;;;;5056159;28;20039;-41
2023/06/19 02:18:46;;;;;;;;;;;22.40;71.60;;;;;;5084767;28;19924;-41
2023/06/19 02:21:13;;;;;;;;;;;22.40;71.80;;;;;;5080010;28;19988;-41
2023/06/19 02:23:40;;;;;;;;;;;22.40;72.30;;;;;;5073118;28;19977;-41
2023/06/19 02:26:06;;;;;;;;;;;22.40;71.80;;;;;;5072746;28;20018;-41
2023/06/19 02:28:33;;;;;;;;;;;22.40;72.50;;;;;;5054607;28;19995;-40
2023/06/19 02:31:01;;;;;;;;;;;22.40;72.50;;;;;;5069350;28;19983;-41
2023/06/19 02:33:28;;;;;;;;;;;22.40;72.50;;;;;;5076825;28;19928;-40
2023/06/19 02:35:58;;;;;;;;;;;22.40;73.30;;;;;;5072209;28;19925;-41
2023/06/19 02:38:25;;;;;;;;;;;22.40;73.00;;;;;;5056298;28;19968;-41
2023/06/19 02:40:52;;;;;;;;;;;22.30;72.90;;;;;;5072230;28;20352;-41
2023/06/19 02:43:18;;;;;;;;;;;22.30;72.70;;;;;;5043731;28;20546;-41
2023/06/19 02:45:45;;;;;;;;;;;22.30;73.20;;;;;;5041902;28;19972;-41
2023/06/19 02:48:13;;;;;;;;;;;22.30;73.60;;;;;;5053981;28;19970;-41
2023/06/19 02:50:39;;;;;;;;;;;22.30;73.40;;;;;;5055402;28;19971;-41
2023/06/19 02:53:06;;;;;;;;;;;22.30;74.10;;;;;;5054640;28;20451;-41
2023/06/19 02:55:33;;;;;;;;;;;22.30;73.40;;;;;;5065978;28;19928;-41
2023/06/19 02:57:59;;;;;;;;;;;22.30;73.80;;;;;;5058686;28;20011;-42
2023/06/19 03:00:28;;;;;;;;;;;22.20;74.20;;;;;;5055956;28;19925;-40
2023/06/19 03:02:55;;;;;;;;;;;22.20;73.70;;;;;;5070690;28;19931;-41
2023/06/19 03:05:23;;;;;;;;;;;22.20;73.50;;;;;;5051789;28;19936;-42
2023/06/19 03:07:49;;;;;;;;;;;22.20;74.00;;;;;;5068644;28;19968;-41
2023/06/19 03:10:16;;;;;;;;;;;22.30;75.60;;;;;;5060846;28;19971;-41
2023/06/19 03:12:43;;;;;;;;;;;22.20;76.20;;;;;;5052765;28;19925;-41
2023/06/19 03:15:10;;;;;;;;;;;22.20;76.40;;;;;;5054044;28;19925;-41
2023/06/19 03:17:37;;;;;;;;;;;22.20;76.10;;;;;;5071681;28;19957;-41
2023/06/19 03:20:05;;;;;;;;;;;22.20;75.90;;;;;;5077386;28;19970;-40
2023/06/19 03:22:33;;;;;;;;;;;22.10;77.40;;;;;;5078217;28;19931;-41
2023/06/19 03:25:00;;;;;;;;;;;22.20;77.40;;;;;;5052378;28;19956;-42
2023/06/19 03:27:27;;;;;;;;;;;22.10;76.90;;;;;;5068759;28;19924;-38
2023/06/19 03:29:53;;;;;;;;;;;22.20;76.80;;;;;;5044539;28;19978;-41
2023/06/19 03:32:20;;;;;;;;;;;22.20;77.20;;;;;;5063096;28;20045;-42
2023/06/19 03:34:48;;;;;;;;;;;22.20;78.00;;;;;;5054622;28;19924;-35
2023/06/19 03:37:15;;;;;;;;;;;22.10;79.30;;;;;;5061527;28;19924;-39
2023/06/19 03:39:43;;;;;;;;;;;22.10;78.80;;;;;;5071811;28;19924;-42
2023/06/19 03:42:09;;;;;;;;;;;22.10;78.30;;;;;;5047426;28;20373;-42
2023/06/19 03:44:36;;;;;;;;;;;22.10;78.90;;;;;;5044764;28;19982;-42
2023/06/19 03:47:08;;;;;;;;;;;22.00;79.30;;;;;;5078905;28;19964;-41
2023/06/19 03:49:35;;;;;;;;;;;22.00;79.70;;;;;;5072292;28;19928;-41
2023/06/19 03:52:01;;;;;;;;;;;22.00;80.90;;;;;;5070892;28;19932;-41
2023/06/19 03:54:28;;;;;;;;;;;22.00;81.80;;;;;;5070676;28;19926;-42
2023/06/19 03:56:56;;;;;;;;;;;21.90;80.60;;;;;;5071923;28;20011;-40
2023/06/19 03:59:23;;;;;;;;;;;21.90;81.70;;;;;;5071673;28;19968;-41
2023/06/19 04:01:49;;;;;;;;;;;21.90;82.10;;;;;;5056599;28;19987;-40
2023/06/19 04:04:16;;;;;;;;;;;21.80;81.50;;;;;;5069228;28;19987;-40
2023/06/19 04:06:42;;;;;;;;;;;21.80;82.40;;;;;;5049757;28;20024;-38
2023/06/19 04:09:09;;;;;;;;;;;21.80;82.80;;;;;;5070797;28;19989;-41
2023/06/19 04:11:36;;;;;;;;;;;21.70;81.70;;;;;;5038578;28;19994;-42
2023/06/19 04:14:04;;;;;;;;;;;21.70;82.70;;;;;;5062063;28;19997;-41
2023/06/19 04:16:30;;;;;;;;;;;21.60;82.60;;;;;;5053384;28;19928;-42
2023/06/19 04:18:57;;;;;;;;;;;21.60;84.80;;;;;;5053117;28;19965;-41
2023/06/19 04:21:24;;;;;;;;;;;21.60;85.00;;;;;;5087466;28;20371;-41
2023/06/19 04:23:51;;;;;;;;;;;21.50;85.60;;;;;;5074352;28;19925;-38
2023/06/19 04:26:18;;;;;;;;;;;21.50;84.30;;;;;;5070981;28;19928;-41
2023/06/19 04:28:44;;;;;;;;;;;21.50;85.00;;;;;;5071010;28;19973;-38
2023/06/19 04:31:12;;;;;;;;;;;21.50;85.10;;;;;;5053772;28;19983;-42
2023/06/19 04:33:40;;;;;;;;;;;21.40;86.50;;;;;;5049032;28;19971;-39
2023/06/19 04:36:09;;;;;;;;;;;21.40;86.70;;;;;;5051770;28;19971;-37
2023/06/19 04:38:36;;;;;;;;;;;21.30;87.50;;;;;;5053008;28;20011;-40
2023/06/19 04:41:03;;;;;;;;;;;21.30;88.60;;;;;;5043130;28;19980;-34
2023/06/19 04:43:29;;;;;;;;;;;21.30;87.70;;;;;;5074091;28;19924;-40
2023/06/19 04:45:56;;;;;;;;;;;21.30;90.00;;;;;;5056545;28;19978;-41
2023/06/19 04:48:25;;;;;;;;;;;21.30;89.90;;;;;;5056996;28;20365;-41
2023/06/19 04:50:52;;;;;;;;;;;21.20;90.40;;;;;;5069286;28;20084;-40
2023/06/19 04:53:19;;;;;;;;;;;21.20;89.10;;;;;;5075107;28;19924;-40
2023/06/19 04:55:45;;;;;;;;;;;21.20;89.60;;;;;;5074279;28;19924;-41
2023/06/19 04:58:12;;;;;;;;;;;21.30;90.80;;;;;;5074558;28;19925;-40
2023/06/19 05:00:39;;;;;;;;;;;21.20;91.60;;;;;;5072448;28;20007;-37
2023/06/19 05:03:05;;;;;;;;;;;21.20;91.00;;;;;;5043716;28;19928;-41
2023/06/19 05:05:33;;;;;;;;;;;21.20;91.80;;;;;;5074936;28;20028;-40
2023/06/19 05:08:00;;;;;;;;;;;21.20;91.20;;;;;;5056737;28;20287;-40
2023/06/19 05:10:27;;;;;;;;;;;21.20;92.10;;;;;;5057140;28;19971;-40
2023/06/19 05:12:54;;;;;;;;;;;21.20;93.10;;;;;;5074183;28;19947;-41
2023/06/19 05:15:21;;;;;;;;;;;21.20;92.10;;;;;;5057123;28;20019;-41
2023/06/19 05:17:47;;;;;;;;;;;21.20;93.70;;;;;;5048231;28;20011;-40
2023/06/19 05:20:14;;;;;;;;;;;21.30;92.80;;;;;;5074052;28;20344;-39
2023/06/19 05:22:42;;;;;;;;;;;21.30;93.70;;;;;;5044838;28;20331;-40
2023/06/19 05:25:09;;;;;;;;;;;21.40;94.10;;;;;;5049468;28;20384;-40
2023/06/19 05:27:36;;;;;;;;;;;21.40;95.10;;;;;;5074365;28;19967;-41
2023/06/19 05:30:03;;;;;;;;;;;21.40;95.70;;;;;;5073317;28;19971;-41
2023/06/19 05:32:30;;;;;;;;;;;21.40;94.70;;;;;;5073229;28;19928;-40
2023/06/19 05:34:57;;;;;;;;;;;21.40;94.50;;;;;;5051334;28;20004;-42
2023/06/19 05:37:23;;;;;;;;;;;21.50;95.90;;;;;;5072928;28;19978;-42
2023/06/19 05:39:51;;;;;;;;;;;21.50;96.50;;;;;;5073462;28;20015;-40
2023/06/19 05:42:18;;;;;;;;;;;21.50;96.90;;;;;;5072771;28;19978;-41
2023/06/19 05:44:44;;;;;;;;;;;21.50;97.20;;;;;;5055122;28;19932;-41
2023/06/19 05:47:11;;;;;;;;;;;21.50;97.60;;;;;;5072864;28;19970;-42
2023/06/19 05:49:39;;;;;;;;;;;21.50;96.80;;;;;;5044661;28;19964;-37
2023/06/19 05:52:06;;;;;;;;;;;21.50;97.20;;;;;;5047688;28;19936;-41
2023/06/19 05:54:32;;;;;;;;;;;21.50;98.00;;;;;;5070100;28;19967;-40
2023/06/19 05:57:00;;;;;;;;;;;21.60;97.30;;;;;;5052087;28;20064;-40
2023/06/19 05:59:27;;;;;;;;;;;21.70;98.10;;;;;;5066540;28;20019;-39
2023/06/19 06:01:55;;;;;;;;;;;21.70;98.50;;;;;;5072601;28;19924;-37
2023/06/19 06:04:22;;;;;;;;;;;21.70;98.00;;;;;;5081805;28;19924;-38
2023/06/19 06:06:49;;;;;;;;;;;21.80;97.70;;;;;;5071755;28;19995;-42
2023/06/19 06:09:16;;;;;;;;;;;21.80;98.70;;;;;;5072835;28;19967;-40
2023/06/19 06:11:43;;;;;;;;;;;21.90;99.10;;;;;;5054392;28;19973;-41
2023/06/19 06:14:11;;;;;;;;;;;21.80;99.40;;;;;;5058765;28;19925;-42
2023/06/19 06:16:37;;;;;;;;;;;21.90;98.30;;;;;;5053294;28;19924;-41
2023/06/19 06:19:04;;;;;;;;;;;21.90;99.00;;;;;;5071803;28;19925;-41
2023/06/19 06:21:31;;;;;;;;;;;21.90;99.70;;;;;;5051965;28;19971;-40
2023/06/19 06:23:57;;;;;;;;;;;21.90;98.90;;;;;;5073505;28;20346;-40
2023/06/19 06:26:24;;;;;;;;;;;21.80;99.80;;;;;;5064971;28;19947;-40
2023/06/19 06:28:50;;;;;;;;;;;21.80;99.90;;;;;;5055853;28;19968;-40
2023/06/19 06:31:18;;;;;;;;;;;21.80;99.90;;;;;;5072348;28;19932;-40
2023/06/19 06:33:45;;;;;;;;;;;21.80;99.90;;;;;;5042926;28;19925;-40
2023/06/19 06:36:12;;;;;;;;;;;21.70;99.90;;;;;;5055424;28;20342;-39
2023/06/19 06:38:38;;;;;;;;;;;21.70;99.90;;;;;;5054187;28;20377;-40
2023/06/19 06:41:05;;;;;;;;;;;21.80;99.90;;;;;;5056330;28;19924;-41
2023/06/19 06:43:32;;;;;;;;;;;21.70;99.90;;;;;;5053320;28;19924;-41
2023/06/19 06:45:58;;;;;;;;;;;21.70;99.90;;;;;;5068976;28;20008;-41
2023/06/19 06:48:26;;;;;;;;;;;21.60;99.90;;;;;;5054904;28;19973;-39
2023/06/19 06:50:58;;;;;;;;;;;21.60;99.90;;;;;;5073111;28;20352;-41
2023/06/19 06:53:25;;;;;;;;;;;21.50;99.90;;;;;;5070440;28;20006;-41
2023/06/19 06:55:52;;;;;;;;;;;21.50;99.90;;;;;;5063938;28;19964;-40
2023/06/19 06:58:18;;;;;;;;;;;21.60;99.90;;;;;;5067774;28;19924;-39
2023/06/19 07:00:45;;;;;;;;;;;21.60;99.90;;;;;;5054814;28;19931;-40
2023/06/19 07:03:13;;;;;;;;;;;21.60;99.90;;;;;;5072157;28;20445;-40
2023/06/19 07:05:41;;;;;;;;;;;21.60;99.90;;;;;;5072482;28;20004;-40
2023/06/19 07:08:07;;;;;;;;;;;21.60;99.90;;;;;;5072152;28;20419;-40
2023/06/19 07:10:34;;;;;;;;;;;21.60;99.90;;;;;;5072501;28;20011;-40
2023/06/19 07:13:00;;;;;;;;;;;21.70;99.90;;;;;;5072858;28;20387;-41
2023/06/19 07:15:27;;;;;;;;;;;21.70;99.90;;;;;;5054982;28;19925;-39
2023/06/19 07:17:54;;;;;;;;;;;21.70;99.90;;;;;;5071782;28;20003;-41
2023/06/19 07:20:20;;;;;;;;;;;21.70;99.90;;;;;;5071799;28;19963;-40
2023/06/19 07:22:48;;;;;;;;;;;21.70;99.90;;;;;;5054517;28;19960;-39
2023/06/19 07:25:15;;;;;;;;;;;21.70;99.90;;;;;;5072337;28;20500;-40
2023/06/19 07:27:41;;;;;;;;;;;21.70;99.90;;;;;;5072584;28;19982;-40
2023/06/19 07:30:08;;;;;;;;;;;21.70;99.90;;;;;;5072491;28;19928;-41
2023/06/19 07:32:35;;;;;;;;;;;21.80;99.90;;;;;;5072111;28;19925;-41
2023/06/19 07:35:02;;;;;;;;;;;21.80;99.90;;;;;;5054693;28;19928;-41
2023/06/19 07:37:28;;;;;;;;;;;21.70;99.90;;;;;;5072319;28;20015;-39
2023/06/19 07:39:56;;;;;;;;;;;21.70;99.90;;;;;;5072562;28;19924;-40
2023/06/19 07:42:23;;;;;;;;;;;21.70;99.90;;;;;;5072268;28;19924;-40
2023/06/19 07:44:50;;;;;;;;;;;21.70;99.90;;;;;;5054647;28;19934;-38
2023/06/19 07:47:17;;;;;;;;;;;21.70;99.90;;;;;;5054103;28;19925;-40
2023/06/19 07:49:44;;;;;;;;;;;21.70;99.90;;;;;;5072207;28;19924;-41
2023/06/19 07:52:11;;;;;;;;;;;21.70;99.90;;;;;;5072506;28;20343;-39
2023/06/19 07:54:37;;;;;;;;;;;21.60;99.90;;;;;;5072045;28;20435;-41
2023/06/19 07:57:06;;;;;;;;;;;21.60;99.90;;;;;;5072195;28;19970;-41
2023/06/19 07:59:32;;;;;;;;;;;21.60;99.90;;;;;;5071821;28;19925;-41
2023/06/19 08:01:59;;;;;;;;;;;21.70;99.90;;;;;;5054305;28;19959;-40
2023/06/19 08:04:26;;;;;;;;;;;21.70;99.90;;;;;;5054278;28;19972;-41
2023/06/19 08:06:52;;;;;;;;;;;21.80;99.90;;;;;;5072006;28;19929;-41
2023/06/19 08:09:19;;;;;;;;;;;21.80;99.90;;;;;;5072048;28;20065;-41
2023/06/19 08:11:45;;;;;;;;;;;21.90;99.90;;;;;;5071972;28;19970;-40
2023/06/19 08:14:13;;;;;;;;;;;22.00;99.90;;;;;;5071915;28;20363;-40
2023/06/19 08:16:40;;;;;;;;;;;22.00;99.90;;;;;;5072698;28;20418;-40
2023/06/19 08:19:07;;;;;;;;;;;22.10;99.70;;;;;;5058644;28;20011;-40
2023/06/19 08:21:33;;;;;;;;;;;22.10;99.60;;;;;;5057928;28;19985;-40
2023/06/19 08:24:00;;;;;;;;;;;22.10;99.50;;;;;;5076320;28;19933;-39
2023/06/19 08:26:27;;;;;;;;;;;22.10;99.50;;;;;;5076005;28;19925;-39
2023/06/19 08:28:53;;;;;;;;;;;22.10;99.30;;;;;;5058359;28;20020;-41
2023/06/19 08:31:27;;;;;;;;;;;22.10;99.50;;;;;;5058100;28;19929;-41
2023/06/19 08:33:53;;;;;;;;;;;22.10;99.40;;;;;;5058194;28;19924;-41
2023/06/19 08:36:20;;;;;;;;;;;22.10;99.10;;;;;;5058392;28;20308;-41
2023/06/19 08:38:49;;;;;;;;;;;22.10;99.10;;;;;;5058079;28;20083;-40
2023/06/19 08:41:15;;;;;;;;;;;22.10;99.00;;;;;;5057955;28;20015;-39
2023/06/19 08:43:42;;;;;;;;;;;22.10;98.80;;;;;;5075545;28;19925;-41
2023/06/19 08:46:10;;;;;;;;;;;22.10;99.00;;;;;;5075502;28;19978;-40
2023/06/19 08:48:38;;;;;;;;;;;22.20;98.90;;;;;;5075578;28;19924;-41
2023/06/19 08:51:05;;;;;;;;;;;22.20;98.70;;;;;;5058023;28;19924;-39
2023/06/19 08:53:33;;;;;;;;;;;22.20;99.00;;;;;;5057873;28;19969;-41
2023/06/19 08:56:00;;;;;;;;;;;22.10;98.80;;;;;;5074345;28;19983;-40
2023/06/19 08:58:26;;;;;;;;;;;22.10;99.00;;;;;;5075175;28;19974;-39
2023/06/19 09:00:53;;;;;;;;;;;22.10;98.80;;;;;;5075055;28;20357;-41
2023/06/19 09:03:20;;;;;;;;;;;22.10;98.70;;;;;;5075346;28;19928;-40
2023/06/19 09:05:50;;;;;;;;;;;22.20;98.70;;;;;;5075214;28;20019;-41
2023/06/19 09:08:17;;;;;;;;;;;22.20;98.40;;;;;;5057643;28;19982;-41
2023/06/19 09:10:43;;;;;;;;;;;22.40;98.50;;;;;;5057048;28;20376;-41
2023/06/19 09:13:10;;;;;;;;;;;22.50;98.60;;;;;;5057717;28;20371;-41
2023/06/19 09:15:37;;;;;;;;;;;22.60;98.00;;;;;;5074680;28;20015;-38
2023/06/19 09:18:04;;;;;;;;;;;22.60;97.80;;;;;;5075265;28;19992;-41
2023/06/19 09:20:31;;;;;;;;;;;22.60;97.80;;;;;;5057417;28;19964;-41
2023/06/19 09:22:59;;;;;;;;;;;22.70;97.70;;;;;;5056809;28;19975;-41
2023/06/19 09:25:26;;;;;;;;;;;22.70;97.60;;;;;;5056903;28;19924;-41
2023/06/19 09:27:53;;;;;;;;;;;22.70;97.60;;;;;;5056525;28;19932;-41
2023/06/19 09:30:20;;;;;;;;;;;22.70;97.60;;;;;;5074676;28;19924;-41
2023/06/19 09:32:46;;;;;;;;;;;22.70;97.70;;;;;;5074766;28;19985;-41
2023/06/19 09:35:13;;;;;;;;;;;22.70;97.60;;;;;;5074969;28;19985;-42
2023/06/19 09:37:40;;;;;;;;;;;22.70;97.90;;;;;;5074674;28;20015;-41
2023/06/19 09:40:10;;;;;;;;;;;22.80;97.60;;;;;;5074464;28;20334;-41
2023/06/19 09:42:37;;;;;;;;;;;22.80;97.50;;;;;;5056770;28;20307;-41
2023/06/19 09:45:05;;;;;;;;;;;22.80;97.60;;;;;;5057188;28;19980;-41
2023/06/19 09:47:32;;;;;;;;;;;22.80;97.50;;;;;;5074557;28;19930;-41
2023/06/19 09:49:58;;;;;;;;;;;22.90;97.60;;;;;;5056568;28;20415;-41
2023/06/19 09:52:25;;;;;;;;;;;22.90;97.60;;;;;;5056322;28;19924;-41
2023/06/19 09:54:52;;;;;;;;;;;22.90;97.20;;;;;;5074165;28;19928;-41
2023/06/19 09:57:20;;;;;;;;;;;22.80;97.10;;;;;;5074188;28;19924;-42
2023/06/19 09:59:47;;;;;;;;;;;22.90;97.00;;;;;;5056058;28;19980;-40
2023/06/19 10:02:14;;;;;;;;;;;22.90;96.90;;;;;;5056780;28;19924;-40
2023/06/19 10:04:45;;;;;;;;;;;22.90;96.80;;;;;;5074722;28;19935;-41
2023/06/19 10:07:18;;;;;;;;;;;22.80;96.70;;;;;;5074122;28;19924;-41
2023/06/19 10:10:01;;;;;;;;;;;22.80;96.60;;;;;;5073963;28;19971;-41
2023/06/19 10:12:36;;;;;;;;;;;22.90;96.70;;;;;;5056526;28;19924;-41
2023/06/19 10:15:13;;;;;;;;;;;22.90;96.50;;;;;;5074054;28;19924;-41
2023/06/19 10:17:43;;;;;;;;;;;23.10;96.50;;;;;;5073780;28;19970;-41
2023/06/19 10:20:19;;;;;;;;;;;23.10;96.30;;;;;;5073698;28;20423;-42
2023/06/19 10:22:51;;;;;;;;;;;23.10;96.00;;;;;;5055417;28;20429;-41
2023/06/19 10:25:20;;;;;;;;;;;23.10;96.00;;;;;;5056201;28;19931;-41
2023/06/19 10:27:52;;;;;;;;;;;23.10;96.10;;;;;;5056027;28;19966;-42
2023/06/19 10:30:18;;;;;;;;;;;23.20;96.00;;;;;;5073779;28;19949;-42
2023/06/19 10:32:45;;;;;;;;;;;23.30;95.90;;;;;;5055950;28;20019;-41
2023/06/19 10:35:12;;;;;;;;;;;23.50;95.50;;;;;;5073536;28;20290;-42
2023/06/19 10:37:39;;;;;;;;;;;23.60;95.00;;;;;;5073339;28;19931;-41
2023/06/19 10:40:09;;;;;;;;;;;23.60;95.10;;;;;;5054780;28;19925;-42
2023/06/19 10:42:36;;;;;;;;;;;23.70;94.80;;;;;;5073404;28;19925;-41
2023/06/19 10:45:05;;;;;;;;;;;23.80;94.70;;;;;;5073349;28;20011;-40
2023/06/19 10:47:32;;;;;;;;;;;23.90;94.60;;;;;;5055732;28;20404;-41
2023/06/19 10:49:59;;;;;;;;;;;23.90;94.60;;;;;;5055344;28;20411;-40
2023/06/19 10:52:25;;;;;;;;;;;24.00;94.60;;;;;;5055370;28;19982;-40
2023/06/19 10:54:54;;;;;;;;;;;24.10;94.40;;;;;;5055230;28;19971;-41
2023/06/19 10:57:26;;;;;;;;;;;24.20;94.30;;;;;;5055476;28;19986;-41
2023/06/19 10:59:53;;;;;;;;;;;24.30;94.20;;;;;;5055205;28;20326;-41
2023/06/19 11:02:21;;;;;;;;;;;24.40;93.70;;;;;;5055197;28;19947;-42
2023/06/19 11:04:48;;;;;;;;;;;24.50;93.80;;;;;;5055275;28;20057;-42
2023/06/19 11:07:14;;;;;;;;;;;24.60;93.50;;;;;;5073014;28;19924;-40
2023/06/19 11:09:42;;;;;;;;;;;24.60;93.20;;;;;;5073089;28;20320;-41
2023/06/19 11:12:09;;;;;;;;;;;24.60;93.20;;;;;;5055273;28;19926;-42
2023/06/19 11:14:39;;;;;;;;;;;24.60;93.20;;;;;;5072767;28;20323;-42
2023/06/19 11:17:06;;;;;;;;;;;24.60;93.30;;;;;;5055000;28;19974;-41
2023/06/19 11:19:34;;;;;;;;;;;24.70;93.30;;;;;;5072424;28;19932;-41
2023/06/19 11:22:02;;;;;;;;;;;24.70;93.40;;;;;;5072660;28;19932;-42
2023/06/19 11:24:29;;;;;;;;;;;24.80;93.00;;;;;;5054818;28;19925;-39
2023/06/19 11:26:58;;;;;;;;;;;24.90;92.30;;;;;;5071912;28;20397;-41
2023/06/19 11:29:25;;;;;;;;;;;24.90;92.00;;;;;;5072396;28;19925;-41
2023/06/19 11:31:53;;;;;;;;;;;24.90;92.20;;;;;;5054749;28;19924;-41
2023/06/19 11:34:20;;;;;;;;;;;25.00;91.60;;;;;;5054748;28;19924;-42
2023/06/19 11:36:48;;;;;;;;;;;25.00;91.70;;;;;;5072134;28;19986;-41
2023/06/19 11:39:15;;;;;;;;;;;25.00;91.50;;;;;;5072293;28;20019;-41
2023/06/19 11:41:42;;;;;;;;;;;25.10;91.90;;;;;;5072194;28;19935;-41
2023/06/19 11:44:10;;;;;;;;;;;25.20;91.80;;;;;;5054518;28;19928;-41
2023/06/19 11:46:36;;;;;;;;;;;25.30;91.50;;;;;;5054423;28;20274;-42
2023/06/19 11:49:10;;;;;;;;;;;25.40;91.30;;;;;;5054535;28;19973;-39
2023/06/19 11:51:36;;;;;;;;;;;25.40;90.90;;;;;;5054318;28;19974;-42
2023/06/19 11:54:05;;;;;;;;;;;25.40;91.30;;;;;;5054742;28;19924;-37
2023/06/19 11:56:31;;;;;;;;;;;25.40;91.00;;;;;;5054466;28;19986;-42
2023/06/19 11:58:58;;;;;;;;;;;25.50;90.70;;;;;;5054433;28;20349;-42
2023/06/19 12:01:26;;;;;;;;;;;25.60;90.60;;;;;;5054187;28;20003;-42
2023/06/19 12:03:52;;;;;;;;;;;25.70;90.90;;;;;;5072147;28;20296;-42
2023/06/19 12:06:19;;;;;;;;;;;25.90;90.40;;;;;;5054119;28;19924;-41
2023/06/19 12:08:46;;;;;;;;;;;26.10;89.90;;;;;;5072254;28;20003;-42
2023/06/19 12:11:14;;;;;;;;;;;26.20;90.00;;;;;;5054423;28;19972;-42
2023/06/19 12:13:40;;;;;;;;;;;26.30;89.80;;;;;;5054465;28;19975;-41
2023/06/19 12:16:07;;;;;;;;;;;26.30;89.20;;;;;;5072001;28;19983;-42
2023/06/19 12:18:34;;;;;;;;;;;26.20;89.50;;;;;;5072082;28;20426;-42
2023/06/19 12:21:00;;;;;;;;;;;26.10;88.60;;;;;;5071798;28;19931;-42
2023/06/19 12:23:27;;;;;;;;;;;25.90;88.60;;;;;;5072197;28;19978;-41
2023/06/19 12:25:57;;;;;;;;;;;25.70;88.70;;;;;;5071937;28;19937;-42
2023/06/19 12:28:28;;;;;;;;;;;25.70;90.10;;;;;;5054165;28;19928;-42
2023/06/19 12:30:56;;;;;;;;;;;25.70;90.00;;;;;;5071643;28;20466;-42
2023/06/19 12:33:22;;;;;;;;;;;25.80;90.00;;;;;;5071811;28;19978;-42
2023/06/19 12:35:49;;;;;;;;;;;25.90;90.20;;;;;;5054355;28;20340;-42
2023/06/19 12:38:15;;;;;;;;;;;25.90;89.60;;;;;;5071630;28;19925;-40
2023/06/19 12:40:42;;;;;;;;;;;26.10;90.00;;;;;;5071575;28;19928;-40
2023/06/19 12:43:09;;;;;;;;;;;26.20;89.30;;;;;;5054222;28;19968;-43
2023/06/19 12:45:37;;;;;;;;;;;26.40;90.00;;;;;;5053766;28;20338;-43
2023/06/19 12:48:03;;;;;;;;;;;26.60;89.40;;;;;;5071811;28;20437;-41
2023/06/19 12:50:30;;;;;;;;;;;26.70;88.60;;;;;;5071345;28;20404;-45
2023/06/19 12:52:57;;;;;;;;;;;27.00;88.20;;;;;;5053874;28;19972;-41
2023/06/19 12:55:23;;;;;;;;;;;27.20;86.70;;;;;;5053699;28;19925;-42
2023/06/19 12:57:50;;;;;;;;;;;27.20;86.30;;;;;;5071767;28;19925;-36
2023/06/19 13:00:17;;;;;;;;;;;27.30;85.70;;;;;;5071379;28;20380;-42
2023/06/19 13:02:46;;;;;;;;;;;27.30;85.20;;;;;;5054732;28;19956;-42
2023/06/19 13:05:13;;;;;;;;;;;27.40;84.10;;;;;;5056947;28;19936;-42
2023/06/19 13:07:39;;;;;;;;;;;27.50;85.00;;;;;;5045864;28;19929;-41
2023/06/19 13:10:06;;;;;;;;;;;27.50;84.50;;;;;;5074812;28;20423;-42
2023/06/19 13:12:33;;;;;;;;;;;27.60;84.70;;;;;;5057065;28;20015;-42
2023/06/19 13:15:00;;;;;;;;;;;27.80;81.60;;;;;;5074895;28;19924;-43
2023/06/19 13:17:26;;;;;;;;;;;27.90;81.40;;;;;;5074930;28;19975;-41
2023/06/19 13:19:54;;;;;;;;;;;28.10;80.60;;;;;;5074876;28;19974;-39
2023/06/19 13:22:21;;;;;;;;;;;28.30;81.70;;;;;;5074721;28;20007;-41
2023/06/19 13:24:48;;;;;;;;;;;28.50;80.20;;;;;;5074586;28;19931;-41
2023/06/19 13:27:14;;;;;;;;;;;28.70;79.90;;;;;;5074636;28;19971;-40
2023/06/19 13:29:41;;;;;;;;;;;28.70;77.60;;;;;;5056830;28;20296;-42
2023/06/19 13:32:08;;;;;;;;;;;28.70;78.70;;;;;;5075015;28;20014;-42
2023/06/19 13:34:34;;;;;;;;;;;28.70;78.30;;;;;;5068009;28;19924;-42
2023/06/19 13:37:03;;;;;;;;;;;28.70;77.30;;;;;;5061416;28;20023;-41
2023/06/19 13:39:30;;;;;;;;;;;28.70;77.70;;;;;;5054305;28;19928;-40
2023/06/19 13:41:56;;;;;;;;;;;28.80;77.50;;;;;;5036968;28;20395;-41
2023/06/19 13:44:23;;;;;;;;;;;29.00;78.40;;;;;;5069411;28;19978;-41
2023/06/19 13:46:50;;;;;;;;;;;29.10;76.80;;;;;;5041584;28;20000;-42
2023/06/19 13:49:16;;;;;;;;;;;29.10;75.10;;;;;;5054805;28;19978;-42
2023/06/19 13:51:44;;;;;;;;;;;29.10;76.00;;;;;;5072900;28;20372;-42
2023/06/19 13:54:13;;;;;;;;;;;29.10;75.30;;;;;;5063868;28;19925;-42
2023/06/19 13:56:39;;;;;;;;;;;29.10;73.80;;;;;;5074151;28;19925;-42
2023/06/19 13:59:06;;;;;;;;;;;29.00;73.90;;;;;;5043287;28;20368;-41
2023/06/19 14:01:33;;;;;;;;;;;29.00;73.70;;;;;;5071058;28;19932;-41
2023/06/19 14:04:00;;;;;;;;;;;29.10;73.80;;;;;;5066531;28;19925;-42
2023/06/19 14:06:26;;;;;;;;;;;29.10;72.30;;;;;;5054547;28;20412;-39
2023/06/19 14:08:53;;;;;;;;;;;29.10;73.10;;;;;;5048893;28;20038;-39
2023/06/19 14:11:21;;;;;;;;;;;29.20;73.50;;;;;;5062615;28;19968;-42
2023/06/19 14:13:47;;;;;;;;;;;29.30;71.10;;;;;;5059974;28;20015;-41
2023/06/19 14:16:14;;;;;;;;;;;29.50;73.30;;;;;;5074319;28;19963;-37